Seattle, Washington
Traffic Map
Current Weather Conditions
Seattle, Washington
Broken Clouds
Broken Clouds
69°
Feels Like: 69°
Wind Chill: 69° Ceiling: 3900
Heat Index: 69° Visibility: 10mi
Dew Point: 52° Wind: 5mph
Humidity: 54% Direction: ° ()
Pressure: 30.39in Gusts: 0mph
Raw Report DataKBFI 251853Z VRB04KT 10SM BKN039 21/11 A3039 RMK AO2 SLP291 T02060111
Traffic Incident Summary
Active as of:
Severity:
Category:
InformationThere was an issue retrieving the traffic information for this location. Please try a different location or try again shortly.
Advertisements
Track Severe Weather on mobile